Nova Petropolis, Brazil
Current Conditions -  °F | °C
As of 2:00 PM on Friday 21 Nov 2014 (Local Time) from SBCO Reporting Station
Broken Clouds Broken Clouds  
Wind Chill: 88°   Ceiling: 4000
Heat Index: 93°   Visibility: 6mi
Dew Point: 70°   Wind: 5mph
Humidity: 55%   Direction: 190°S
Pressure: 29.83"   Gusts: NA
Location:  29.38°S, 51.12°W
Report Text: SBCO 211600Z 19004KT 150V270 9999 BKN040 FEW045TCU 31/21 Q1010
Loading
Personal Weather Stations






























Interactive Weather Map New forecast layout! Learn more

10-Day Weather Forecast

Advertisements
Track Severe Weather on mobile